Latest Weather Observations for Arlington Reef

IDQ60801

Issued at 11:31 am EST Sunday 14 February 2016 (issued every 30 minutes, with the page automatically refreshed every 10 minutes)

About weather observations | Map of weather stations | Latest weather observations for QLD | Other Formats
Station Details ID: 200879 Name: ARLINGTON REEF Lat: -16.72 Lon: 146.11 Height: 0.0 m
Data from the previous 72 hours. | See also: Recent months at Arlington Reef
Date/Time
EST
Temp
°C
App
Temp
°C
Dew
Point
Rel
Hum
%
Delta-T
°C
Wind Press
QNH
hPa
Press
MSL
hPa
Rain
since 9 am
mm
Dir
 
Spd
km/h
Gust
km/h
Spd
kts
Gust
kts
14/11:30am - - - - - NW 6 7 3 4 1008.3 1008.3 -
14/11:00am - - - - - WNW 4 6 2 3 1008.5 1008.5 -
14/10:30am - - - - - WNW 6 7 3 4 1008.7 1008.7 -
14/10:00am - - - - - NW 6 9 3 5 1008.9 1008.9 -
14/09:30am - - - - - WNW 7 9 4 5 1009.0 1009.0 -
14/09:00am - - - - - W 4 7 2 4 1008.9 1008.9 -
14/08:30am - - - - - CALM 0 0 0 0 1008.9 1008.9 -
14/08:00am - - - - - CALM 0 2 0 1 1009.0 1009.0 -
14/07:30am - - - - - SW 6 6 3 3 1008.5 1008.5 -
14/07:00am - - - - - SSW 2 4 1 2 1008.3 1008.3 -
14/06:30am - - - - - CALM 0 0 0 0 1007.9 1007.9 -
14/06:00am - - - - - CALM 0 2 0 1 1007.7 1007.7 -
14/05:30am - - - - - CALM 0 2 0 1 1007.5 1007.5 -
14/05:00am - - - - - CALM 0 2 0 1 1007.2 1007.2 -
14/04:30am - - - - - CALM 0 4 0 2 1007.1 1007.1 -
14/04:00am - - - - - ESE 7 9 4 5 1007.0 1007.0 -
14/03:30am - - - - - ESE 4 6 2 3 1007.1 1007.1 -
14/03:00am - - - - - ESE 2 4 1 2 1007.1 1007.1 -
14/02:30am - - - - - SSE 4 6 2 3 1007.2 1007.2 -
14/02:00am - - - - - SE 2 4 1 2 1007.4 1007.4 -
14/01:30am - - - - - S 4 6 2 3 1007.7 1007.7 -
14/01:00am - - - - - SSW 4 6 2 3 1007.9 1007.9 -
14/12:30am - - - - - SSE 7 11 4 6 1008.1 1008.1 -
14/12:00am - - - - - SSE 9 13 5 7 1008.2 1008.2 -
 
Date/Time
EST
Temp
°C
App
Temp
°C
Dew
Point
Rel
Hum
%
Delta-T
°C
Wind Press
QNH
hPa
Press
MSL
hPa
Rain
since 9 am
mm
Dir
 
Spd
km/h
Gust
km/h
Spd
kts
Gust
kts
13/11:30pm - - - - - SSE 7 9 4 5 1008.6 1008.6 -
13/11:00pm - - - - - SSE 9 13 5 7 1008.8 1008.8 -
13/10:30pm - - - - - SSE 11 13 6 7 1008.9 1008.9 -
13/10:00pm - - - - - SSE 9 11 5 6 1008.7 1008.7 -
13/09:30pm - - - - - SE 15 19 8 10 1008.4 1008.4 -
13/09:00pm - - - - - SE 17 20 9 11 1008.0 1008.0 -
13/08:30pm - - - - - SE 19 22 10 12 1007.7 1007.7 -
13/08:00pm - - - - - SE 19 22 10 12 1007.7 1007.7 -
13/07:30pm - - - - - SE 20 24 11 13 1007.4 1007.4 -
13/07:00pm - - - - - SE 19 22 10 12 1007.1 1007.1 -
13/06:30pm - - - - - SE 19 20 10 11 1006.8 1006.8 -
13/06:00pm - - - - - SSE 11 13 6 7 1006.7 1006.7 -
13/05:30pm - - - - - SE 9 11 5 6 1006.6 1006.6 -
13/05:00pm - - - - - SE 11 13 6 7 1006.4 1006.4 -
13/04:30pm - - - - - SE 11 15 6 8 1006.2 1006.2 -
13/04:00pm - - - - - SSE 11 15 6 8 1006.2 1006.2 -
13/03:30pm - - - - - SSE 13 17 7 9 1006.3 1006.3 -
13/03:00pm - - - - - SE 9 13 5 7 1006.5 1006.5 -
13/02:30pm - - - - - SSE 11 15 6 8 1006.6 1006.6 -
13/02:00pm - - - - - SSE 11 15 6 8 1006.9 1006.9 -
13/01:30pm - - - - - SSE 11 15 6 8 1007.2 1007.2 -
13/01:00pm - - - - - S 9 13 5 7 1007.6 1007.6 -
13/12:30pm - - - - - S 7 9 4 5 1008.0 1008.0 -
13/12:00pm - - - - - S 9 13 5 7 1008.2 1008.2 -
13/11:30am - - - - - S 11 13 6 7 1008.6 1008.6 -
13/11:00am - - - - - S 11 15 6 8 1008.8 1008.8 -
13/10:30am - - - - - S 13 15 7 8 1008.9 1008.9 -
13/10:00am - - - - - SSW 15 19 8 10 1009.1 1009.1 -
13/09:30am - - - - - SSW 17 20 9 11 1009.2 1009.2 -
13/09:00am - - - - - SSW 19 20 10 11 1009.1 1009.1 -
13/08:30am - - - - - S 20 24 11 13 1008.8 1008.8 -
13/08:00am - - - - - S 22 26 12 14 1008.6 1008.6 -
13/07:30am - - - - - S 22 26 12 14 1008.4 1008.4 -
13/07:00am - - - - - S 22 26 12 14 1007.9 1007.9 -
13/06:30am - - - - - S 22 28 12 15 1007.7 1007.7 -
13/06:00am - - - - - S 22 28 12 15 1007.3 1007.3 -
13/05:30am - - - - - S 20 24 11 13 1007.0 1007.0 -
13/05:00am - - - - - S 20 24 11 13 1006.9 1006.9 -
13/04:30am - - - - - S 20 24 11 13 1006.7 1006.7 -
13/04:00am - - - - - SSE 24 30 13 16 1006.7 1006.7 -
13/03:30am - - - - - SSE 28 30 15 16 1006.7 1006.7 -
13/03:00am - - - - - SSE 26 33 14 18 1006.6 1006.6 -
13/02:30am - - - - - SSE 28 33 15 18 1006.6 1006.6 -
13/02:00am - - - - - SSE 26 32 14 17 1006.8 1006.8 -
13/01:30am - - - - - SSE 20 24 11 13 1007.1 1007.1 -
13/01:00am - - - - - SSE 24 28 13 15 1007.4 1007.4 -
13/12:30am - - - - - SSE 24 26 13 14 1007.7 1007.7 -
13/12:00am - - - - - SSE 22 26 12 14 1008.0 1008.0 -
 
Date/Time
EST
Temp
°C
App
Temp
°C
Dew
Point
Rel
Hum
%
Delta-T
°C
Wind Press
QNH
hPa
Press
MSL
hPa
Rain
since 9 am
mm
Dir
 
Spd
km/h
Gust
km/h
Spd
kts
Gust
kts
12/11:30pm - - - - - SSE 19 22 10 12 1008.4 1008.4 -
12/11:00pm - - - - - SSE 19 20 10 11 1008.6 1008.6 -
12/10:30pm - - - - - SSE 17 20 9 11 1008.9 1008.9 -
12/10:00pm - - - - - SSE 15 19 8 10 1008.9 1008.9 -
12/09:30pm - - - - - SE 15 19 8 10 1008.7 1008.7 -
12/09:00pm - - - - - SSE 15 19 8 10 1008.6 1008.6 -
12/08:30pm - - - - - SE 19 22 10 12 1008.4 1008.4 -
12/08:00pm - - - - - SE 22 26 12 14 1008.0 1008.0 -
12/07:30pm - - - - - SE 26 30 14 16 1007.7 1007.7 -
12/07:00pm - - - - - SE 24 28 13 15 1007.4 1007.4 -
12/06:30pm - - - - - SE 22 26 12 14 1007.1 1007.1 -
12/06:00pm - - - - - SE 28 33 15 18 1006.7 1006.7 -
12/05:30pm - - - - - SE 33 39 18 21 1006.2 1006.2 -
12/05:00pm - - - - - SE 30 35 16 19 1006.1 1006.1 -
12/04:30pm - - - - - SE 26 30 14 16 1006.0 1006.0 -
12/04:00pm - - - - - SSE 24 30 13 16 1006.1 1006.1 -
12/03:30pm - - - - - SSE 26 32 14 17 1006.1 1006.1 -
12/03:00pm - - - - - SSE 24 30 13 16 1006.3 1006.3 -
12/02:30pm - - - - - SSE 22 28 12 15 1006.6 1006.6 -
12/02:00pm - - - - - SSE 22 26 12 14 1006.8 1006.8 -
12/01:30pm - - - - - SSE 24 28 13 15 1007.2 1007.2 -
12/01:00pm - - - - - SSE 24 28 13 15 1007.6 1007.6 -
12/12:30pm - - - - - S 26 32 14 17 1008.0 1008.0 -
12/12:00pm - - - - - S 24 30 13 16 1008.4 1008.4 -
12/11:30am - - - - - S 24 30 13 16 1009.1 1009.1 -
12/11:00am - - - - - S 24 28 13 15 1009.4 1009.4 -
12/10:30am - - - - - S 24 28 13 15 1009.5 1009.5 -
12/10:00am - - - - - S 26 30 14 16 1009.6 1009.6 -
12/09:30am - - - - - S 28 32 15 17 1010.0 1010.0 -
12/09:00am - - - - - S 26 30 14 16 1009.9 1009.9 -
12/08:30am - - - - - S 24 28 13 15 1009.9 1009.9 -
12/08:00am - - - - - S 28 33 15 18 1009.4 1009.4 -
12/07:30am - - - - - S 26 32 14 17 1009.2 1009.2 -
12/07:00am - - - - - S 28 33 15 18 1008.9 1008.9 -
12/06:30am - - - - - S 30 33 16 18 1008.5 1008.5 -
12/06:00am - - - - - S 26 30 14 16 1008.2 1008.2 -
12/05:30am - - - - - SSE 28 32 15 17 1007.8 1007.8 -
12/05:00am - - - - - S 32 39 17 21 1007.5 1007.5 -
12/04:30am - - - - - S 28 33 15 18 1007.1 1007.1 -
12/04:00am - - - - - S 30 33 16 18 1007.2 1007.2 -
12/03:30am - - - - - SSE 19 28 10 15 1007.5 1007.5 -
12/03:00am - - - - - S 20 24 11 13 1007.1 1007.1 -
12/02:30am - - - - - SSE 19 30 10 16 1007.4 1007.4 -
12/02:00am - - - - - SSE 24 30 13 16 1007.3 1007.3 -
12/01:30am - - - - - SSE 22 28 12 15 1007.6 1007.6 -
12/01:00am - - - - - SSE 19 22 10 12 1008.0 1008.0 -
12/12:30am - - - - - SSE 20 24 11 13 1008.2 1008.2 -
12/12:00am - - - - - SSE 22 24 12 13 1008.4 1008.4 -
 
Date/Time
EST
Temp
°C
App
Temp
°C
Dew
Point
Rel
Hum
%
Delta-T
°C
Wind Press
QNH
hPa
Press
MSL
hPa
Rain
since 9 am
mm
Dir
 
Spd
km/h
Gust
km/h
Spd
kts
Gust
kts
11/11:30pm - - - - - SSE 22 26 12 14 1008.7 1008.7 -
11/11:00pm - - - - - SSE 22 26 12 14 1008.9 1008.9 -
11/10:30pm - - - - - SSE 22 26 12 14 1009.1 1009.1 -
11/10:00pm - - - - - SSE 24 28 13 15 1009.0 1009.0 -
11/09:30pm - - - - - SSE 24 28 13 15 1008.8 1008.8 -
11/09:00pm - - - - - SSE 24 28 13 15 1008.6 1008.6 -
11/08:30pm - - - - - SE 22 26 12 14 1008.7 1008.7 -
11/08:00pm - - - - - S 22 28 12 15 1008.4 1008.4 -
11/07:30pm - - - - - SSE 20 26 11 14 1008.1 1008.1 -
11/07:00pm - - - - - SE 15 17 8 9 1007.8 1007.8 -
11/06:30pm - - - - - ESE 15 19 8 10 1007.6 1007.6 -
11/06:00pm - - - - - ESE 20 24 11 13 1007.2 1007.2 -
11/05:30pm - - - - - SE 22 26 12 14 1007.0 1007.0 -
11/05:00pm - - - - - SE 30 35 16 19 1006.5 1006.5 -
11/04:30pm - - - - - SE 33 39 18 21 1006.4 1006.4 -
11/04:00pm - - - - - SE 39 44 21 24 1006.0 1006.0 -
11/03:30pm - - - - - SSE 32 39 17 21 1006.3 1006.3 -
11/03:00pm - - - - - S 20 26 11 14 1006.4 1006.4 -
11/02:30pm - - - - - SSE 28 33 15 18 1006.4 1006.4 -
11/02:00pm - - - - - SSE 33 37 18 20 1006.5 1006.5 -
11/01:30pm - - - - - S 28 33 15 18 1007.0 1007.0 -
11/01:00pm - - - - - SSE 24 35 13 19 1007.4 1007.4 -
11/12:30pm - - - - - SSE 26 32 14 17 1007.6 1007.6 -
11/12:00pm - - - - - SSE 24 26 13 14 1008.0 1008.0 -

Other Formats:

Comma delimited format used in spreadsheet applications
http://www.bom.gov.au/fwo/IDQ60801/IDQ60801.94284.axf

JavaScript Object Notation format (JSON) in row-major order
http://www.bom.gov.au/fwo/IDQ60801/IDQ60801.94284.json